Time;durP1;ratioP1;P1;durP2;ratioP2;P2;SDS_P1;SDS_P2;PMS_P1;PMS_P2;Temp;Humidity;BMP_temperature;BMP_pressure;BME280_temperature;BME280_humidity;BME280_pressure;Samples;Min_cycle;Max_cycle;Signal;HPM_P1;HPM_P2
2022/02/12 00:01:18;;;;;;;15.15;9.63;;;;;;;3.03;67.22;100410.63;1696984;83;20978;-74
2022/02/12 00:03:45;;;;;;;12.73;8.90;;;;;;;3.02;67.34;100405.87;1676028;85;21093;-73
2022/02/12 00:06:13;;;;;;;13.55;9.08;;;;;;;3.01;67.42;100404.19;1691444;83;21045;-74
2022/02/12 00:08:39;;;;;;;15.40;9.33;;;;;;;3.00;67.42;100399.88;1708815;83;21010;-74
2022/02/12 00:11:06;;;;;;;14.33;9.55;;;;;;;3.01;67.46;100399.42;1708997;83;22194;-74
2022/02/12 00:13:33;;;;;;;12.75;8.63;;;;;;;3.02;67.52;100388.06;1691156;83;21053;-74
2022/02/12 00:16:01;;;;;;;11.65;7.92;;;;;;;3.03;67.58;100389.75;1697525;83;20990;-74
2022/02/12 00:18:28;;;;;;;13.70;8.73;;;;;;;3.01;67.59;100382.47;1706509;83;21128;-74
2022/02/12 00:20:55;;;;;;;11.70;8.10;;;;;;;3.00;67.64;100373.80;1710609;83;21038;-75
2022/02/12 00:23:23;;;;;;;10.75;7.67;;;;;;;3.02;67.64;100372.41;1709892;83;22932;-75
2022/02/12 00:25:51;;;;;;;12.53;8.18;;;;;;;3.01;67.62;100365.05;1708483;83;21065;-75
2022/02/12 00:28:18;;;;;;;14.13;8.65;;;;;;;3.01;67.60;100358.98;1709217;83;21430;-74
2022/02/12 00:30:46;;;;;;;13.55;8.50;;;;;;;3.01;67.58;100351.16;1717238;83;21023;-73
2022/02/12 00:33:15;;;;;;;19.80;9.08;;;;;;;3.02;67.51;100354.14;1693554;83;21038;-73
2022/02/12 00:35:41;;;;;;;16.30;8.50;;;;;;;3.02;67.51;100335.87;1691056;83;22479;-73
2022/02/12 00:38:08;;;;;;;14.98;8.25;;;;;;;3.03;67.48;100336.27;1702319;83;21011;-74
2022/02/12 00:40:34;;;;;;;15.58;8.25;;;;;;;3.01;67.46;100334.20;1694886;83;21031;-74
2022/02/12 00:43:01;;;;;;;20.52;8.05;;;;;;;3.00;67.50;100325.98;1691060;83;21059;-74
2022/02/12 00:45:28;;;;;;;19.70;9.55;;;;;;;2.98;67.57;100321.28;1679301;83;21542;-74
2022/02/12 00:47:54;;;;;;;28.50;10.65;;;;;;;2.95;67.69;100324.89;1709934;83;21795;-74
2022/02/12 00:50:21;;;;;;;30.43;11.95;;;;;;;2.94;67.76;100315.84;1705120;83;21046;-75
2022/02/12 00:52:47;;;;;;;33.20;12.80;;;;;;;2.92;67.89;100314.61;1667383;85;21062;-75
2022/02/12 00:55:14;;;;;;;33.10;13.45;;;;;;;2.90;67.98;100306.48;1699542;83;21038;-76
2022/02/12 00:57:40;;;;;;;31.75;13.03;;;;;;;2.90;68.11;100309.94;1713455;83;20979;-76
2022/02/12 01:00:07;;;;;;;33.95;13.85;;;;;;;2.89;68.20;100316.05;1690662;83;22227;-74
2022/02/12 01:02:36;;;;;;;32.17;14.43;;;;;;;2.90;68.31;100315.16;1707732;83;21082;-73
2022/02/12 01:05:04;;;;;;;28.00;13.75;;;;;;;2.92;68.44;100312.47;1697555;83;21477;-75
2022/02/12 01:07:32;;;;;;;30.02;14.13;;;;;;;2.91;68.56;100302.48;1703794;83;21038;-73
2022/02/12 01:09:58;;;;;;;26.60;13.85;;;;;;;2.91;68.67;100305.09;1678724;83;21034;-74
2022/02/12 01:12:25;;;;;;;26.10;13.78;;;;;;;2.92;68.73;100302.03;1700817;83;22187;-74
2022/02/12 01:14:52;;;;;;;20.72;12.13;;;;;;;2.94;68.82;100297.11;1700603;83;21122;-74
2022/02/12 01:17:19;;;;;;;15.80;10.23;;;;;;;2.95;68.83;100285.75;1690561;83;20987;-74
2022/02/12 01:19:49;;;;;;;15.05;10.70;;;;;;;2.96;68.84;100295.27;1693848;83;21019;-75
2022/02/12 01:22:13;;;;;;;14.60;10.00;;;;;;;2.96;68.84;100293.96;1703188;83;21520;-75
2022/02/12 01:24:41;;;;;;;12.13;8.78;;;;;;;2.97;68.87;100297.41;1693418;83;22545;-75
2022/02/12 01:27:08;;;;;;;11.90;8.45;;;;;;;2.97;68.98;100294.80;1704398;83;20971;-74
2022/02/12 01:29:35;;;;;;;11.20;7.70;;;;;;;2.94;69.11;100293.66;1714354;83;21014;-74
2022/02/12 01:32:03;;;;;;;10.70;7.53;;;;;;;2.92;69.29;100295.51;1713202;83;20998;-74
2022/02/12 01:34:34;;;;;;;10.48;7.75;;;;;;;2.87;69.47;100291.80;1701563;83;21201;-74
2022/02/12 01:37:04;;;;;;;10.53;7.75;;;;;;;2.83;69.72;100289.81;1703260;83;21846;-74
2022/02/12 01:39:31;;;;;;;10.48;8.03;;;;;;;2.80;69.90;100283.92;1697145;83;20998;-74
2022/02/12 01:42:00;;;;;;;10.38;8.15;;;;;;;2.77;70.11;100284.88;1706109;83;20999;-74
2022/02/12 01:44:32;;;;;;;11.25;7.85;;;;;;;2.74;70.27;100273.31;1716219;83;21014;-74
2022/02/12 01:46:59;;;;;;;12.13;8.77;;;;;;;2.74;70.50;100276.38;1697962;82;21548;-74
2022/02/12 01:49:26;;;;;;;11.85;9.18;;;;;;;2.71;70.70;100273.93;1698818;83;21826;-78
2022/02/12 01:51:54;;;;;;;13.72;9.55;;;;;;;2.68;70.89;100270.98;1705851;83;21042;-77
2022/02/12 01:54:21;;;;;;;10.85;8.30;;;;;;;2.66;71.07;100267.62;1710635;83;21070;-77
2022/02/12 01:56:48;;;;;;;10.93;8.13;;;;;;;2.66;71.20;100267.62;1701114;83;21113;-75
2022/02/12 01:59:14;;;;;;;11.03;8.30;;;;;;;2.66;71.34;100270.22;1702443;83;21516;-76
2022/02/12 02:01:41;;;;;;;13.28;9.48;;;;;;;2.65;71.50;100265.09;1693337;83;21524;-77
2022/02/12 02:04:08;;;;;;;11.83;8.98;;;;;;;2.64;71.65;100260.80;1692299;83;21035;-77
2022/02/12 02:06:37;;;;;;;12.55;8.65;;;;;;;2.63;71.75;100261.25;1702582;83;21028;-76
2022/02/12 02:09:04;;;;;;;11.65;9.00;;;;;;;2.63;71.82;100261.72;1675839;85;21036;-77
2022/02/12 02:11:31;;;;;;;12.28;9.30;;;;;;;2.61;71.89;100260.95;1672590;84;21437;-76
2022/02/12 02:13:58;;;;;;;12.07;8.93;;;;;;;2.57;71.98;100271.51;1688890;84;22192;-77
2022/02/12 02:16:24;;;;;;;12.98;9.30;;;;;;;2.53;72.05;100279.56;1679146;84;21020;-76
2022/02/12 02:18:51;;;;;;;12.37;8.83;;;;;;;2.46;72.14;100270.34;1683413;84;20984;-77
2022/02/12 02:21:18;;;;;;;11.25;8.70;;;;;;;2.42;72.24;100285.75;1675787;84;21036;-74
2022/02/12 02:23:46;;;;;;;12.07;8.80;;;;;;;2.38;72.35;100284.19;1693210;83;21041;-76
2022/02/12 02:26:14;;;;;;;10.68;8.53;;;;;;;2.34;72.46;100276.98;1676454;84;22278;-77
2022/02/12 02:28:43;;;;;;;14.25;10.23;;;;;;;2.30;72.69;100284.55;1692248;83;21117;-76
2022/02/12 02:31:11;;;;;;;14.75;10.88;;;;;;;2.25;72.94;100280.86;1693732;83;21439;-77
2022/02/12 02:33:38;;;;;;;14.10;10.80;;;;;;;2.21;73.15;100289.72;1695200;83;21047;-77
2022/02/12 02:36:05;;;;;;;16.25;10.90;;;;;;;2.19;73.35;100286.80;1695210;83;21030;-77
2022/02/12 02:38:32;;;;;;;15.90;12.33;;;;;;;2.19;73.53;100287.65;1714477;83;22649;-77
2022/02/12 02:40:58;;;;;;;18.60;13.48;;;;;;;2.20;73.85;100289.34;1712822;83;20967;-76
2022/02/12 02:43:25;;;;;;;16.62;12.80;;;;;;;2.18;74.21;100278.61;1693763;83;21489;-76
2022/02/12 02:45:52;;;;;;;17.07;13.32;;;;;;;2.17;74.58;100272.55;1694176;83;21110;-77
2022/02/12 02:48:19;;;;;;;19.90;13.55;;;;;;;2.16;74.93;100295.62;1707490;83;21097;-77
2022/02/12 02:56:18;;;;;;;20.35;15.72;;;;;;;2.17;76.09;100272.55;1699304;83;21426;-78
2022/02/12 02:58:59;;;;;;;22.40;16.50;;;;;;;2.18;76.33;100274.23;1669960;83;21481;-78
2022/02/12 03:01:24;;;;;;;20.00;16.25;;;;;;;2.17;76.50;100267.34;1692046;84;21074;-77
2022/02/12 03:03:52;;;;;;;22.13;17.70;;;;;;;2.18;76.68;100270.33;1665631;84;21864;-77
2022/02/12 03:06:24;;;;;;;22.87;17.35;;;;;;;2.20;76.82;100268.48;1701714;83;20977;-78
2022/02/12 03:08:52;;;;;;;23.02;17.57;;;;;;;2.20;76.87;100271.09;1696006;83;21432;-78
2022/02/12 03:11:18;;;;;;;20.90;16.10;;;;;;;2.24;76.93;100274.42;1692263;83;20999;-77
2022/02/12 03:13:46;;;;;;;21.07;16.50;;;;;;;2.25;77.06;100286.08;1692800;83;21039;-77
2022/02/12 03:16:14;;;;;;;21.10;16.97;;;;;;;2.26;77.18;100271.28;1702343;83;22687;-77
2022/02/12 03:18:43;;;;;;;21.68;17.02;;;;;;;2.25;77.28;100266.53;1705577;83;20986;-77
2022/02/12 03:21:10;;;;;;;21.42;16.62;;;;;;;2.26;77.33;100272.13;1694010;83;21070;-77
2022/02/12 03:23:39;;;;;;;19.92;16.55;;;;;;;2.27;77.39;100265.15;1701062;83;21434;-77
2022/02/12 03:26:05;;;;;;;27.65;19.90;;;;;;;2.27;77.47;100267.75;1717582;83;21496;-77
2022/02/12 03:28:32;;;;;;;24.65;18.95;;;;;;;2.27;77.59;100267.75;1693437;83;21870;-78
2022/02/12 03:30:58;;;;;;;25.97;20.10;;;;;;;2.28;77.72;100256.41;1690809;83;21038;-78
2022/02/12 03:33:25;;;;;;;26.75;20.92;;;;;;;2.29;77.88;100248.98;1693226;83;21010;-77
2022/02/12 03:35:53;;;;;;;26.95;21.55;;;;;;;2.30;77.93;100250.20;1695023;83;21070;-78
2022/02/12 03:38:31;;;;;;;26.17;19.87;;;;;;;2.30;78.02;100246.29;1697551;83;20990;-77
2022/02/12 03:41:03;;;;;;;24.40;18.75;;;;;;;2.29;78.07;100240.70;1692348;83;21862;-77
2022/02/12 03:43:32;;;;;;;26.33;21.27;;;;;;;2.29;78.17;100243.77;1718673;83;21097;-78
2022/02/12 03:45:59;;;;;;;26.55;20.57;;;;;;;2.29;78.30;100245.91;1700212;83;21006;-77
2022/02/12 03:48:27;;;;;;;28.07;22.90;;;;;;;2.29;78.42;100244.61;1696700;83;21105;-77
2022/02/12 03:50:54;;;;;;;26.02;20.15;;;;;;;2.30;78.53;100250.20;1693653;83;21492;-77
2022/02/12 03:53:20;;;;;;;26.15;21.57;;;;;;;2.32;78.62;100248.85;1691406;83;21801;-77
2022/02/12 03:55:48;;;;;;;27.50;21.10;;;;;;;2.33;78.65;100247.09;1689490;83;21034;-77
2022/02/12 03:58:17;;;;;;;25.43;21.20;;;;;;;2.34;78.72;100238.34;1693219;83;21691;-77
2022/02/12 04:00:45;;;;;;;26.30;20.37;;;;;;;2.37;78.78;100251.23;1693998;83;21078;-77
2022/02/12 04:03:13;;;;;;;25.40;20.43;;;;;;;2.38;78.83;100249.84;1691055;83;21595;-76
2022/02/12 04:05:44;;;;;;;26.97;21.23;;;;;;;2.42;78.86;100240.14;1696143;83;21867;-77
2022/02/12 04:08:13;;;;;;;29.70;22.45;;;;;;;2.44;78.92;100246.11;1690730;83;21030;-78
2022/02/12 04:10:40;;;;;;;28.70;22.45;;;;;;;2.47;78.92;100243.35;1706950;83;20983;-79
2022/02/12 04:13:06;;;;;;;28.98;22.82;;;;;;;2.49;78.99;100244.95;1673513;83;21006;-77
2022/02/12 04:15:34;;;;;;;28.10;22.35;;;;;;;2.51;79.06;100250.97;1692068;83;21038;-76
2022/02/12 04:18:00;;;;;;;27.37;22.85;;;;;;;2.53;79.15;100249.59;1690613;83;21763;-77
2022/02/12 04:20:27;;;;;;;28.23;23.38;;;;;;;2.54;79.21;100242.14;1694574;83;21454;-77
2022/02/12 04:22:54;;;;;;;30.45;22.82;;;;;;;2.57;79.27;100248.05;1697064;83;21041;-77
2022/02/12 04:25:22;;;;;;;29.48;22.87;;;;;;;2.62;79.33;100250.44;1695349;83;21049;-76
2022/02/12 04:27:50;;;;;;;28.02;22.45;;;;;;;2.66;79.40;100245.45;1715690;83;21019;-77
2022/02/12 04:30:17;;;;;;;31.12;23.87;;;;;;;2.71;79.47;100245.24;1712484;83;22483;-77
2022/02/12 04:32:44;;;;;;;29.02;22.60;;;;;;;2.76;79.59;100237.56;1732759;81;21009;-76
2022/02/12 04:35:13;;;;;;;29.57;22.32;;;;;;;2.83;79.63;100240.25;1664315;85;20973;-75
2022/02/12 04:37:40;;;;;;;28.15;21.93;;;;;;;2.88;79.65;100237.41;1662265;85;21509;-77
2022/02/12 04:40:07;;;;;;;28.12;21.97;;;;;;;2.94;79.68;100248.85;1664101;85;21515;-78
2022/02/12 04:42:35;;;;;;;26.50;21.17;;;;;;;3.01;79.77;100245.02;1671987;83;22703;-77
2022/02/12 04:45:02;;;;;;;26.17;20.48;;;;;;;3.09;79.91;100244.18;1668567;85;21408;-76
2022/02/12 04:47:29;;;;;;;27.50;21.73;;;;;;;3.20;79.98;100238.88;1652413;85;21475;-76
2022/02/12 04:49:56;;;;;;;28.17;21.70;;;;;;;3.28;80.05;100244.09;1647418;85;21236;-77
2022/02/12 04:52:23;;;;;;;27.73;21.30;;;;;;;3.36;80.00;100243.20;1642480;86;21096;-77
2022/02/12 04:54:50;;;;;;;27.42;22.13;;;;;;;3.42;79.93;100238.98;1662172;85;22272;-76
2022/02/12 04:57:17;;;;;;;27.67;21.70;;;;;;;3.49;79.83;100240.82;1662075;85;21061;-78
2022/02/12 04:59:44;;;;;;;29.07;22.20;;;;;;;3.52;79.72;100245.03;1669108;85;21048;-78
2022/02/12 05:02:10;;;;;;;27.87;21.02;;;;;;;3.56;79.63;100243.94;1666277;85;20989;-77
2022/02/12 05:04:38;;;;;;;27.60;20.77;;;;;;;3.58;79.54;100239.50;1663582;85;21523;-77
2022/02/12 05:07:05;;;;;;;28.83;22.20;;;;;;;3.59;79.37;100238.57;1675599;85;22436;-76
2022/02/12 05:09:35;;;;;;;29.65;21.57;;;;;;;3.60;79.25;100239.80;1669008;85;21175;-76
2022/02/12 05:12:03;;;;;;;25.90;19.67;;;;;;;3.62;79.15;100240.55;1679314;85;20989;-76
2022/02/12 05:14:31;;;;;;;24.30;19.32;;;;;;;3.64;79.06;100236.08;1665159;85;20989;-77
2022/02/12 05:17:00;;;;;;;23.18;18.00;;;;;;;3.65;78.95;100242.14;1681603;85;21049;-78
2022/02/12 05:19:27;;;;;;;23.45;17.92;;;;;;;3.67;78.86;100244.23;1668159;85;22901;-76
2022/02/12 05:21:54;;;;;;;23.77;18.07;;;;;;;3.68;78.67;100240.70;1680021;85;21504;-76
2022/02/12 05:24:20;;;;;;;19.67;16.48;;;;;;;3.69;78.52;100244.99;1686767;84;21413;-77
2022/02/12 05:26:47;;;;;;;21.50;15.98;;;;;;;3.71;78.39;100245.75;1654024;85;21034;-76
2022/02/12 05:29:13;;;;;;;20.25;16.10;;;;;;;3.72;78.25;100241.74;1654085;85;21025;-84
2022/02/12 05:31:40;;;;;;;18.57;15.48;;;;;;;3.71;78.04;100250.51;1653927;85;21847;-81
2022/02/12 05:34:06;;;;;;;19.20;15.60;;;;;;;3.73;77.95;100256.95;1655107;85;21061;-81
2022/02/12 05:36:33;;;;;;;19.70;14.75;;;;;;;3.71;77.79;100254.42;1661805;85;21069;-84
2022/02/12 05:39:02;;;;;;;18.70;14.60;;;;;;;3.72;77.71;100263.95;1656661;85;21041;-83
2022/02/12 05:41:29;;;;;;;17.27;13.45;;;;;;;3.72;77.53;100262.64;1648241;85;21559;-75
2022/02/12 05:43:55;;;;;;;16.10;13.18;;;;;;;3.73;77.48;100258.27;1665880;85;22913;-78
2022/02/12 05:46:23;;;;;;;16.60;13.55;;;;;;;3.71;77.34;100262.27;1651686;85;21643;-77
2022/02/12 05:48:49;;;;;;;15.48;13.13;;;;;;;3.75;77.28;100266.85;1649166;85;21544;-77
2022/02/12 05:51:18;;;;;;;16.15;13.13;;;;;;;3.74;77.20;100256.02;1624193;87;21497;-75
2022/02/12 05:53:45;;;;;;;14.95;11.95;;;;;;;3.76;77.16;100266.39;1645948;85;21105;-74
2022/02/12 05:56:11;;;;;;;18.25;12.85;;;;;;;3.76;77.07;100272.45;1662163;85;22314;-75
2022/02/12 05:58:38;;;;;;;13.88;11.53;;;;;;;3.76;77.01;100276.38;1658172;85;21045;-78
2022/02/12 06:01:04;;;;;;;14.45;11.43;;;;;;;3.76;76.98;100276.38;1651190;85;21068;-77
2022/02/12 06:03:31;;;;;;;13.65;11.15;;;;;;;3.80;76.92;100281.84;1646033;87;21057;-89
2022/02/12 06:05:57;;;;;;;14.83;11.33;;;;;;;3.79;76.82;100290.60;1659272;85;21043;-77
2022/02/12 06:08:24;;;;;;;13.53;11.43;;;;;;;3.80;76.77;100297.52;1647969;85;21794;-78
2022/02/12 06:10:51;;;;;;;13.10;10.53;;;;;;;3.79;76.73;100297.59;1648546;85;21064;-75
2022/02/12 06:13:18;;;;;;;14.85;11.05;;;;;;;3.77;76.71;100295.06;1666295;85;21018;-84
2022/02/12 06:15:45;;;;;;;12.85;10.95;;;;;;;3.79;76.62;100310.66;1667328;85;21116;-84
2022/02/12 06:18:13;;;;;;;14.53;11.30;;;;;;;3.78;76.57;100308.51;1651832;85;21002;-83
2022/02/12 06:20:40;;;;;;;13.55;10.98;;;;;;;3.79;76.53;100314.58;1654913;85;21843;-82
2022/02/12 06:23:06;;;;;;;13.43;11.20;;;;;;;3.80;76.49;100314.95;1648263;85;21038;-80
2022/02/12 06:25:33;;;;;;;13.80;10.65;;;;;;;3.80;76.53;100322.33;1668077;84;21067;-83
2022/02/12 06:27:59;;;;;;;14.33;11.88;;;;;;;3.78;76.61;100325.48;1667333;84;20993;-79
2022/02/12 06:30:25;;;;;;;15.05;11.70;;;;;;;3.77;76.75;100327.72;1667175;85;21028;-78
2022/02/12 06:32:52;;;;;;;16.50;11.33;;;;;;;3.73;76.99;100333.55;1673292;84;21845;-75
2022/02/12 06:35:21;;;;;;;12.98;11.50;;;;;;;3.70;77.16;100336.80;1667001;85;20969;-77
2022/02/12 06:37:49;;;;;;;14.05;10.85;;;;;;;3.67;77.32;100335.66;1648359;84;21578;-76
2022/02/12 06:40:17;;;;;;;14.33;10.68;;;;;;;3.65;77.42;100343.55;1680900;84;21033;-76
2022/02/12 06:42:43;;;;;;;12.93;11.18;;;;;;;3.63;77.50;100344.09;1673522;85;21490;-74
2022/02/12 06:45:10;;;;;;;13.38;10.63;;;;;;;3.63;77.64;100348.47;1663020;83;22518;-75
2022/02/12 06:47:39;;;;;;;14.18;11.35;;;;;;;3.60;77.87;100349.48;1673021;85;21049;-75
2022/02/12 06:50:08;;;;;;;13.43;10.65;;;;;;;3.59;78.05;100361.31;1666937;83;21730;-75
2022/02/12 06:52:35;;;;;;;14.25;10.65;;;;;;;3.55;78.30;100357.15;1645119;85;21754;-74
2022/02/12 06:55:01;;;;;;;13.58;11.50;;;;;;;3.51;78.50;100377.83;1665474;85;21626;-75
2022/02/12 06:57:28;;;;;;;15.60;12.40;;;;;;;3.46;78.55;100384.56;1668772;85;21830;-75
2022/02/12 06:59:55;;;;;;;15.53;12.53;;;;;;;3.43;78.58;100392.56;1662829;85;21045;-76
2022/02/12 07:02:21;;;;;;;14.03;10.43;;;;;;;3.36;78.54;100425.11;1673691;85;20981;-76
2022/02/12 07:04:48;;;;;;;16.12;11.63;;;;;;;3.24;78.16;100423.09;1664461;85;21579;-75
2022/02/12 07:07:15;;;;;;;12.05;9.75;;;;;;;3.15;78.08;100440.05;1664796;83;21180;-76
2022/02/12 07:09:42;;;;;;;10.98;8.83;;;;;;;3.05;77.82;100460.97;1661327;85;21878;-78
2022/02/12 07:12:10;;;;;;;9.33;7.80;;;;;;;2.93;77.71;100471.53;1683707;85;21009;-77
2022/02/12 07:14:43;;;;;;;9.08;7.22;;;;;;;2.74;77.40;100484.56;1668828;85;21104;-77
2022/02/12 07:17:10;;;;;;;9.78;8.00;;;;;;;2.53;77.34;100467.28;1656241;85;21002;-79
2022/02/12 07:19:37;;;;;;;8.90;7.30;;;;;;;2.33;77.47;100505.96;1675910;85;21009;-78
2022/02/12 07:22:04;;;;;;;8.53;6.90;;;;;;;2.16;77.75;100519.70;1668912;83;21837;-78
2022/02/12 07:24:32;;;;;;;10.32;7.37;;;;;;;2.02;77.95;100527.23;1664638;83;21131;-74
2022/02/12 07:26:58;;;;;;;8.23;6.70;;;;;;;1.91;78.17;100539.86;1682721;84;21069;-75
2022/02/12 07:29:25;;;;;;;8.33;7.00;;;;;;;1.83;78.42;100553.19;1696782;84;21132;-78
2022/02/12 07:31:51;;;;;;;6.95;6.20;;;;;;;1.76;78.58;100560.03;1684380;84;20969;-75
2022/02/12 07:34:19;;;;;;;6.62;5.70;;;;;;;1.73;78.74;100576.16;1698600;84;22278;-72
2022/02/12 07:36:46;;;;;;;5.53;4.92;;;;;;;1.69;78.73;100597.18;1691943;83;21116;-74
2022/02/12 07:39:13;;;;;;;4.80;4.10;;;;;;;1.68;78.81;100607.20;1696155;84;21051;-71
2022/02/12 07:41:39;;;;;;;4.70;3.92;;;;;;;1.63;78.85;100608.66;1680534;84;21120;-72
2022/02/12 07:44:06;;;;;;;4.08;3.67;;;;;;;1.65;78.93;100613.39;1675186;84;21037;-76
2022/02/12 07:46:33;;;;;;;3.72;3.30;;;;;;;1.68;78.97;100630.19;1677320;84;21749;-78
2022/02/12 07:48:59;;;;;;;3.10;2.80;;;;;;;1.70;79.01;100641.38;1680223;84;21538;-74
2022/02/12 07:51:26;;;;;;;2.98;2.62;;;;;;;1.72;78.96;100639.55;1675893;84;21543;-73
2022/02/12 07:53:52;;;;;;;2.98;2.60;;;;;;;1.72;78.88;100644.77;1678146;84;21466;-73
2022/02/12 07:56:19;;;;;;;2.65;2.40;;;;;;;1.72;78.96;100659.09;1683519;83;21009;-78
2022/02/12 07:58:48;;;;;;;2.80;2.35;;;;;;;1.76;79.00;100670.71;1700749;83;21152;-72
2022/02/12 08:01:14;;;;;;;2.10;1.90;;;;;;;1.77;79.09;100672.41;1687655;84;21052;-73
2022/02/12 08:03:42;;;;;;;2.00;1.80;;;;;;;1.81;79.10;100681.78;1683569;84;21086;-74
2022/02/12 08:07:27;;;;;;;1.90;1.70;;;;;;;1.83;79.18;100689.92;1697837;84;21610;-72
2022/02/12 08:08:38;;;;;;;2.02;1.60;;;;;;;1.91;79.33;100696.99;1697596;84;21139;-77
2022/02/12 08:11:23;;;;;;;2.12;1.70;;;;;;;1.96;79.18;100696.38;1692767;84;21806;-73
2022/02/12 08:13:50;;;;;;;2.83;1.75;;;;;;;1.91;78.83;100707.41;1681593;84;21053;-75
2022/02/12 08:16:18;;;;;;;1.90;1.60;;;;;;;1.84;78.81;100720.30;1681910;84;21115;-76
2022/02/12 08:18:45;;;;;;;1.87;1.67;;;;;;;1.83;78.88;100722.48;1674652;84;21029;-74
2022/02/12 08:21:12;;;;;;;2.20;1.80;;;;;;;1.79;78.79;100738.30;1684388;84;21491;-72
2022/02/12 08:23:39;;;;;;;1.90;1.65;;;;;;;1.75;78.77;100744.53;1681540;84;21826;-75
2022/02/12 08:26:06;;;;;;;2.50;2.00;;;;;;;1.74;78.83;100754.10;1693612;83;21057;-74
2022/02/12 08:28:34;;;;;;;2.30;1.92;;;;;;;1.74;78.94;100765.83;1687088;84;21056;-73
2022/02/12 08:31:00;;;;;;;3.00;2.02;;;;;;;1.78;79.03;100756.98;1681190;84;21022;-72
2022/02/12 08:33:27;;;;;;;2.40;2.00;;;;;;;1.82;79.05;100779.84;1697677;84;21045;-71
2022/02/12 08:35:54;;;;;;;2.30;1.82;;;;;;;1.88;79.05;100786.14;1683761;84;21838;-74
2022/02/12 08:38:22;;;;;;;2.58;2.10;;;;;;;1.89;78.74;100795.64;1692437;84;21003;-71
2022/02/12 08:40:49;;;;;;;3.72;1.98;;;;;;;1.89;78.75;100804.77;1684859;84;21073;-71
2022/02/12 08:43:15;;;;;;;2.10;1.90;;;;;;;1.90;78.62;100801.25;1682013;84;21073;-73
2022/02/12 08:45:42;;;;;;;2.02;1.77;;;;;;;1.85;78.39;100811.00;1678811;84;21068;-73
2022/02/12 08:48:09;;;;;;;2.40;1.80;;;;;;;1.86;78.43;100822.66;1677086;84;21803;-71
2022/02/12 08:50:38;;;;;;;2.35;1.40;;;;;;;1.85;78.39;100815.76;1684598;84;21155;-71
2022/02/12 08:53:05;;;;;;;1.67;1.42;;;;;;;1.86;78.34;100825.72;1692386;84;21064;-76
2022/02/12 08:55:32;;;;;;;2.27;1.80;;;;;;;1.86;78.37;100838.29;1687375;84;21088;-75
2022/02/12 08:57:58;;;;;;;1.65;1.50;;;;;;;1.89;78.29;100841.23;1651853;84;20992;-70
2022/02/12 09:00:27;;;;;;;1.55;1.22;;;;;;;1.93;78.39;100844.98;1691549;84;22543;-72
2022/02/12 09:02:56;;;;;;;1.92;1.20;;;;;;;1.98;78.26;100852.16;1690979;84;21041;-71
2022/02/12 09:05:23;;;;;;;1.35;1.25;;;;;;;2.05;78.20;100855.41;1688807;84;21534;-72
2022/02/12 09:07:49;;;;;;;1.55;1.10;;;;;;;2.11;78.17;100855.16;1676507;84;21017;-74
2022/02/12 09:10:18;;;;;;;1.20;0.90;;;;;;;2.15;77.86;100871.55;1692993;84;21150;-71
2022/02/12 09:12:44;;;;;;;1.27;1.00;;;;;;;2.22;77.82;100882.13;1679592;83;21813;-71
2022/02/12 09:15:11;;;;;;;1.35;1.10;;;;;;;2.24;77.37;100879.03;1675894;84;21510;-72
2022/02/12 09:17:37;;;;;;;1.00;0.90;;;;;;;2.25;77.16;100894.61;1683772;84;21044;-70
2022/02/12 09:20:05;;;;;;;1.42;1.05;;;;;;;2.31;77.14;100893.52;1675506;84;21056;-70
2022/02/12 09:22:33;;;;;;;1.92;1.00;;;;;;;2.36;76.97;100899.88;1680767;84;21121;-71
2022/02/12 09:25:00;;;;;;;1.95;1.00;;;;;;;2.40;76.47;100900.15;1698031;83;21861;-72
2022/02/12 09:27:27;;;;;;;2.27;1.00;;;;;;;2.40;75.85;100900.15;1684326;84;21049;-77
2022/02/12 09:29:58;;;;;;;1.65;0.98;;;;;;;2.43;75.93;100901.36;1682163;84;21079;-73
2022/02/12 09:32:22;;;;;;;2.15;1.10;;;;;;;2.46;75.51;100906.00;1684672;84;21361;-76
2022/02/12 09:34:49;;;;;;;1.32;0.93;;;;;;;2.48;75.26;100917.21;1651578;85;21554;-73
2022/02/12 09:37:17;;;;;;;1.32;1.10;;;;;;;2.51;75.00;100909.30;1643831;85;22398;-73
2022/02/12 09:39:43;;;;;;;2.30;1.20;;;;;;;2.55;74.92;100910.02;1682533;84;21487;-74
2022/02/12 09:42:10;;;;;;;1.90;1.00;;;;;;;2.59;74.78;100923.33;1682486;84;21056;-79
2022/02/12 09:44:41;;;;;;;1.80;1.20;;;;;;;2.62;74.42;100915.41;1674743;85;21044;-72
2022/02/12 09:47:47;;;;;;;2.27;1.55;;;;;;;2.62;74.16;100926.30;1654065;84;21080;-73
2022/02/12 09:50:17;;;;;;;1.42;1.00;;;;;;;2.62;74.04;100924.99;1691784;84;21836;-73
2022/02/12 09:52:48;;;;;;;2.02;1.22;;;;;;;2.64;73.93;100921.41;1693702;84;21543;-73
2022/02/12 09:55:16;;;;;;;2.20;1.30;;;;;;;2.66;73.57;100926.11;1699974;84;20957;-72
2022/02/12 09:57:42;;;;;;;2.17;1.60;;;;;;;2.68;73.72;100937.78;1692331;83;21069;-74
2022/02/12 10:00:14;;;;;;;2.17;1.60;;;;;;;2.76;73.46;100933.13;1660545;84;21671;-72
2022/02/12 10:02:40;;;;;;;2.02;1.60;;;;;;;2.80;73.39;100934.27;1656331;85;21809;-74
2022/02/12 10:05:26;;;;;;;1.90;1.62;;;;;;;2.90;73.12;100932.16;1691431;84;21496;-72
2022/02/12 10:08:06;;;;;;;2.37;1.50;;;;;;;2.96;72.22;100930.59;1687643;83;21546;-72
2022/02/12 10:10:35;;;;;;;3.25;1.80;;;;;;;3.00;71.91;100940.02;1682903;84;21606;-76
2022/02/12 10:13:15;;;;;;;3.25;1.70;;;;;;;3.10;72.02;100946.58;1661333;84;21029;-73
2022/02/12 10:15:55;;;;;;;2.92;1.60;;;;;;;3.20;72.01;100939.23;1683711;84;21833;-77
2022/02/12 10:18:25;;;;;;;1.95;1.50;;;;;;;3.26;71.91;100940.73;1682828;83;21048;-75
2022/02/12 10:20:54;;;;;;;1.95;1.75;;;;;;;3.20;71.61;100960.12;1689154;84;20985;-78
2022/02/12 10:23:24;;;;;;;2.42;1.90;;;;;;;3.10;71.66;100967.46;1683729;84;20997;-84
2022/02/12 10:26:12;;;;;;;2.50;1.95;;;;;;;2.99;71.48;100964.42;1693183;83;21044;-72
2022/02/12 10:28:43;;;;;;;3.22;2.12;;;;;;;2.85;71.63;100970.15;1706893;82;22193;-72
2022/02/12 10:31:11;;;;;;;3.17;2.22;;;;;;;2.76;71.79;100978.32;1679650;83;21029;-72
2022/02/12 10:33:46;;;;;;;2.45;2.20;;;;;;;2.71;71.99;100982.87;1692444;83;21037;-76
2022/02/12 10:36:18;;;;;;;3.45;2.40;;;;;;;2.68;72.02;100985.58;1736747;82;21500;-77
2022/02/12 10:38:47;;;;;;;2.85;2.35;;;;;;;2.67;72.05;100989.55;1665022;84;21047;-71
2022/02/12 10:41:19;;;;;;;3.45;2.55;;;;;;;2.67;71.96;100994.31;1709971;83;21847;-79
2022/02/12 10:43:49;;;;;;;3.17;2.40;;;;;;;2.66;71.96;100993.92;1698056;83;21011;-76
2022/02/12 10:46:16;;;;;;;3.58;2.77;;;;;;;2.69;71.91;101004.23;1678200;84;21513;-75
2022/02/12 10:48:44;;;;;;;5.50;2.65;;;;;;;2.69;71.80;101010.75;1677607;83;21616;-73
2022/02/12 10:51:17;;;;;;;3.35;2.55;;;;;;;2.73;71.76;101013.66;1684090;83;21097;-73
2022/02/12 10:54:07;;;;;;;3.42;2.58;;;;;;;2.78;71.59;101020.00;1709958;83;21800;-74
2022/02/12 10:56:51;;;;;;;3.40;2.50;;;;;;;2.87;71.53;101024.42;1701896;83;21057;-74
2022/02/12 10:59:20;;;;;;;2.75;2.00;;;;;;;3.03;71.68;101025.16;1699018;83;21058;-74
2022/02/12 11:01:47;;;;;;;2.83;1.80;;;;;;;3.15;71.08;101028.61;1712675;83;21030;-72
2022/02/12 11:04:15;;;;;;;2.25;1.80;;;;;;;3.16;70.42;101029.84;1714343;83;21050;-72
2022/02/12 11:06:45;;;;;;;2.90;2.02;;;;;;;3.20;70.64;101037.58;1703407;83;21675;-74
2022/02/12 11:09:13;;;;;;;2.20;1.72;;;;;;;3.28;70.46;101040.30;1674051;83;21006;-74
2022/02/12 11:11:39;;;;;;;4.40;1.90;;;;;;;3.35;70.32;101041.73;1709142;83;21074;-72
2022/02/12 11:14:07;;;;;;;3.87;1.65;;;;;;;3.38;69.72;101046.86;1697149;83;21022;-80
2022/02/12 11:16:38;;;;;;;2.25;1.57;;;;;;;3.38;69.55;101051.23;1705398;83;21096;-78
2022/02/12 11:19:03;;;;;;;4.87;1.92;;;;;;;3.35;69.19;101050.87;1696027;83;22538;-77
2022/02/12 11:21:29;;;;;;;3.37;1.70;;;;;;;3.33;69.17;101057.92;1696038;83;21154;-75
2022/02/12 11:24:05;;;;;;;2.75;1.65;;;;;;;3.33;68.84;101056.62;1685277;84;21039;-76
2022/02/12 11:26:46;;;;;;;2.75;1.70;;;;;;;3.34;68.90;101061.38;1700270;82;21101;-75
2022/02/12 11:29:33;;;;;;;2.83;1.60;;;;;;;3.39;69.15;101064.69;1717513;83;21067;-77
2022/02/12 11:32:20;;;;;;;4.47;2.02;;;;;;;3.48;69.04;101066.94;1705729;83;22476;-75
2022/02/12 11:35:09;;;;;;;4.08;2.17;;;;;;;3.54;68.09;101069.75;1707460;81;21052;-78